sensor_id;sensor_type;location;lat;lon;timestamp;temperature;humidity
31455;DHT22;18084;53.028;8.834;2024-03-02T00:00:20;6.20;81.80
31455;DHT22;18084;53.028;8.834;2024-03-02T00:02:48;6.30;81.70
31455;DHT22;18084;53.028;8.834;2024-03-02T00:05:19;6.30;81.70
31455;DHT22;18084;53.028;8.834;2024-03-02T00:07:53;6.30;81.60
31455;DHT22;18084;53.028;8.834;2024-03-02T00:10:23;6.20;81.60
31455;DHT22;18084;53.028;8.834;2024-03-02T00:12:51;6.10;81.70
31455;DHT22;18084;53.028;8.834;2024-03-02T00:18:11;6.00;82.20
31455;DHT22;18084;53.028;8.834;2024-03-02T00:20:38;6.00;82.20
31455;DHT22;18084;53.028;8.834;2024-03-02T00:23:05;6.00;82.20
31455;DHT22;18084;53.028;8.834;2024-03-02T00:25:39;6.10;82.20
31455;DHT22;18084;53.028;8.834;2024-03-02T00:28:05;6.10;82.20
31455;DHT22;18084;53.028;8.834;2024-03-02T00:33:16;6.10;81.80
31455;DHT22;18084;53.028;8.834;2024-03-02T00:35:44;6.10;81.80
31455;DHT22;18084;53.028;8.834;2024-03-02T00:38:10;6.10;81.90
31455;DHT22;18084;53.028;8.834;2024-03-02T00:40:36;6.10;81.90
31455;DHT22;18084;53.028;8.834;2024-03-02T00:43:02;6.10;81.90
31455;DHT22;18084;53.028;8.834;2024-03-02T00:45:28;6.10;81.80
31455;DHT22;18084;53.028;8.834;2024-03-02T00:47:54;6.10;81.70
31455;DHT22;18084;53.028;8.834;2024-03-02T00:50:20;6.10;81.60
31455;DHT22;18084;53.028;8.834;2024-03-02T00:52:46;6.10;81.40
31455;DHT22;18084;53.028;8.834;2024-03-02T00:55:14;6.20;81.30
31455;DHT22;18084;53.028;8.834;2024-03-02T00:57:39;6.20;81.00
31455;DHT22;18084;53.028;8.834;2024-03-02T01:00:06;6.20;81.00
31455;DHT22;18084;53.028;8.834;2024-03-02T01:02:35;6.20;81.10
31455;DHT22;18084;53.028;8.834;2024-03-02T01:05:01;6.10;81.40
31455;DHT22;18084;53.028;8.834;2024-03-02T01:07:26;6.10;81.50
31455;DHT22;18084;53.028;8.834;2024-03-02T01:09:52;6.10;81.70
31455;DHT22;18084;53.028;8.834;2024-03-02T01:12:17;6.00;81.70
31455;DHT22;18084;53.028;8.834;2024-03-02T01:14:43;6.00;81.80
31455;DHT22;18084;53.028;8.834;2024-03-02T01:17:08;5.90;81.90
31455;DHT22;18084;53.028;8.834;2024-03-02T01:19:34;6.00;81.80
31455;DHT22;18084;53.028;8.834;2024-03-02T01:21:59;5.90;81.80
31455;DHT22;18084;53.028;8.834;2024-03-02T01:24:25;5.90;81.70
31455;DHT22;18084;53.028;8.834;2024-03-02T01:26:50;5.90;81.60
31455;DHT22;18084;53.028;8.834;2024-03-02T01:29:16;5.90;81.70
31455;DHT22;18084;53.028;8.834;2024-03-02T01:31:41;5.80;81.60
31455;DHT22;18084;53.028;8.834;2024-03-02T01:34:10;5.80;81.70
31455;DHT22;18084;53.028;8.834;2024-03-02T01:36:36;5.80;81.80
31455;DHT22;18084;53.028;8.834;2024-03-02T01:39:02;5.80;81.80
31455;DHT22;18084;53.028;8.834;2024-03-02T01:41:28;5.70;81.80
31455;DHT22;18084;53.028;8.834;2024-03-02T01:43:53;5.70;81.80
31455;DHT22;18084;53.028;8.834;2024-03-02T01:46:19;5.70;82.00
31455;DHT22;18084;53.028;8.834;2024-03-02T01:48:44;5.70;82.10
31455;DHT22;18084;53.028;8.834;2024-03-02T01:51:10;5.60;82.00
31455;DHT22;18084;53.028;8.834;2024-03-02T01:53:36;5.70;82.10
31455;DHT22;18084;53.028;8.834;2024-03-02T01:56:02;5.70;82.00
31455;DHT22;18084;53.028;8.834;2024-03-02T01:58:28;5.60;82.00
31455;DHT22;18084;53.028;8.834;2024-03-02T02:00:53;5.60;82.10
31455;DHT22;18084;53.028;8.834;2024-03-02T02:03:19;5.70;81.80
31455;DHT22;18084;53.028;8.834;2024-03-02T02:05:45;5.70;81.80
31455;DHT22;18084;53.028;8.834;2024-03-02T02:08:12;5.70;81.90
31455;DHT22;18084;53.028;8.834;2024-03-02T02:10:37;5.60;81.90
31455;DHT22;18084;53.028;8.834;2024-03-02T02:13:03;5.60;81.90
31455;DHT22;18084;53.028;8.834;2024-03-02T02:15:29;5.60;82.10
31455;DHT22;18084;53.028;8.834;2024-03-02T02:17:56;5.60;82.10
31455;DHT22;18084;53.028;8.834;2024-03-02T02:20:22;5.50;82.20
31455;DHT22;18084;53.028;8.834;2024-03-02T02:23:04;5.50;82.10
31455;DHT22;18084;53.028;8.834;2024-03-02T02:25:31;5.50;82.00
31455;DHT22;18084;53.028;8.834;2024-03-02T02:27:57;5.50;82.10
31455;DHT22;18084;53.028;8.834;2024-03-02T02:30:25;5.50;82.20
31455;DHT22;18084;53.028;8.834;2024-03-02T02:32:51;5.40;82.30
31455;DHT22;18084;53.028;8.834;2024-03-02T02:35:17;5.40;82.30
31455;DHT22;18084;53.028;8.834;2024-03-02T02:37:43;5.30;82.40
31455;DHT22;18084;53.028;8.834;2024-03-02T02:40:09;5.30;82.60
31455;DHT22;18084;53.028;8.834;2024-03-02T02:42:34;5.30;82.70
31455;DHT22;18084;53.028;8.834;2024-03-02T02:45:00;5.20;82.80
31455;DHT22;18084;53.028;8.834;2024-03-02T02:47:26;5.20;83.00
31455;DHT22;18084;53.028;8.834;2024-03-02T02:49:51;5.10;83.00
31455;DHT22;18084;53.028;8.834;2024-03-02T02:52:17;5.10;83.20
31455;DHT22;18084;53.028;8.834;2024-03-02T02:54:43;5.10;83.30
31455;DHT22;18084;53.028;8.834;2024-03-02T02:57:09;5.10;83.30
31455;DHT22;18084;53.028;8.834;2024-03-02T02:59:35;5.10;83.30
31455;DHT22;18084;53.028;8.834;2024-03-02T03:02:01;5.00;83.40
31455;DHT22;18084;53.028;8.834;2024-03-02T03:04:26;5.00;83.50
31455;DHT22;18084;53.028;8.834;2024-03-02T03:06:52;4.90;83.60
31455;DHT22;18084;53.028;8.834;2024-03-02T03:09:17;4.90;83.80
31455;DHT22;18084;53.028;8.834;2024-03-02T03:11:43;4.90;83.90
31455;DHT22;18084;53.028;8.834;2024-03-02T03:14:08;5.00;84.00
31455;DHT22;18084;53.028;8.834;2024-03-02T03:16:34;5.00;84.00
31455;DHT22;18084;53.028;8.834;2024-03-02T03:18:59;5.00;83.80
31455;DHT22;18084;53.028;8.834;2024-03-02T03:21:25;5.00;83.90
31455;DHT22;18084;53.028;8.834;2024-03-02T03:23:50;4.90;83.90
31455;DHT22;18084;53.028;8.834;2024-03-02T03:26:16;5.00;83.90
31455;DHT22;18084;53.028;8.834;2024-03-02T03:28:41;5.00;84.00
31455;DHT22;18084;53.028;8.834;2024-03-02T03:31:07;5.00;83.90
31455;DHT22;18084;53.028;8.834;2024-03-02T03:33:33;5.00;83.90
31455;DHT22;18084;53.028;8.834;2024-03-02T03:35:58;5.00;84.00
31455;DHT22;18084;53.028;8.834;2024-03-02T03:38:23;4.90;84.00
31455;DHT22;18084;53.028;8.834;2024-03-02T03:40:49;4.90;84.00
31455;DHT22;18084;53.028;8.834;2024-03-02T03:43:14;4.90;84.10
31455;DHT22;18084;53.028;8.834;2024-03-02T03:45:40;4.90;84.20
31455;DHT22;18084;53.028;8.834;2024-03-02T03:48:06;5.00;84.10
31455;DHT22;18084;53.028;8.834;2024-03-02T03:50:32;4.90;84.20
31455;DHT22;18084;53.028;8.834;2024-03-02T03:52:58;5.00;84.10
31455;DHT22;18084;53.028;8.834;2024-03-02T03:55:24;4.90;84.00
31455;DHT22;18084;53.028;8.834;2024-03-02T03:57:49;4.90;84.00
31455;DHT22;18084;53.028;8.834;2024-03-02T04:00:15;4.90;84.00
31455;DHT22;18084;53.028;8.834;2024-03-02T04:02:41;4.90;84.10
31455;DHT22;18084;53.028;8.834;2024-03-02T04:05:06;5.00;84.10
31455;DHT22;18084;53.028;8.834;2024-03-02T04:07:36;5.10;84.00
31455;DHT22;18084;53.028;8.834;2024-03-02T04:10:07;5.10;83.80
31455;DHT22;18084;53.028;8.834;2024-03-02T04:12:33;5.10;83.70
31455;DHT22;18084;53.028;8.834;2024-03-02T04:14:59;5.20;83.70
31455;DHT22;18084;53.028;8.834;2024-03-02T04:17:25;5.20;83.50
31455;DHT22;18084;53.028;8.834;2024-03-02T04:19:50;5.20;83.40
31455;DHT22;18084;53.028;8.834;2024-03-02T04:22:16;5.20;83.30
31455;DHT22;18084;53.028;8.834;2024-03-02T04:24:41;5.20;83.30
31455;DHT22;18084;53.028;8.834;2024-03-02T04:27:07;5.30;83.30
31455;DHT22;18084;53.028;8.834;2024-03-02T04:29:32;5.40;83.20
31455;DHT22;18084;53.028;8.834;2024-03-02T04:31:58;5.40;83.00
31455;DHT22;18084;53.028;8.834;2024-03-02T04:34:23;5.40;82.90
31455;DHT22;18084;53.028;8.834;2024-03-02T04:36:49;5.50;82.80
31455;DHT22;18084;53.028;8.834;2024-03-02T04:39:15;5.40;82.60
31455;DHT22;18084;53.028;8.834;2024-03-02T04:41:41;5.40;82.70
31455;DHT22;18084;53.028;8.834;2024-03-02T04:44:06;5.40;82.60
31455;DHT22;18084;53.028;8.834;2024-03-02T04:46:33;5.40;82.70
31455;DHT22;18084;53.028;8.834;2024-03-02T04:48:58;5.30;82.60
31455;DHT22;18084;53.028;8.834;2024-03-02T04:51:24;5.30;82.60
31455;DHT22;18084;53.028;8.834;2024-03-02T04:53:49;5.40;82.50
31455;DHT22;18084;53.028;8.834;2024-03-02T04:56:15;5.30;82.60
31455;DHT22;18084;53.028;8.834;2024-03-02T04:58:59;5.30;82.50
31455;DHT22;18084;53.028;8.834;2024-03-02T05:01:25;5.30;82.50
31455;DHT22;18084;53.028;8.834;2024-03-02T05:03:50;5.30;82.50
31455;DHT22;18084;53.028;8.834;2024-03-02T05:06:16;5.30;82.60
31455;DHT22;18084;53.028;8.834;2024-03-02T05:08:41;5.30;82.50
31455;DHT22;18084;53.028;8.834;2024-03-02T05:11:07;5.40;82.50
31455;DHT22;18084;53.028;8.834;2024-03-02T05:13:51;5.30;82.40
31455;DHT22;18084;53.028;8.834;2024-03-02T05:16:16;5.30;82.50
31455;DHT22;18084;53.028;8.834;2024-03-02T05:18:42;5.20;82.80
31455;DHT22;18084;53.028;8.834;2024-03-02T05:21:07;5.10;82.90
31455;DHT22;18084;53.028;8.834;2024-03-02T05:23:33;5.10;83.10
31455;DHT22;18084;53.028;8.834;2024-03-02T05:25:58;5.00;83.20
31455;DHT22;18084;53.028;8.834;2024-03-02T05:28:24;4.90;83.30
31455;DHT22;18084;53.028;8.834;2024-03-02T05:30:49;5.00;83.30
31455;DHT22;18084;53.028;8.834;2024-03-02T05:33:15;5.00;83.40
31455;DHT22;18084;53.028;8.834;2024-03-02T05:35:41;4.90;83.60
31455;DHT22;18084;53.028;8.834;2024-03-02T05:38:06;4.90;83.50
31455;DHT22;18084;53.028;8.834;2024-03-02T05:40:32;4.90;83.60
31455;DHT22;18084;53.028;8.834;2024-03-02T05:42:57;4.80;83.60
31455;DHT22;18084;53.028;8.834;2024-03-02T05:45:23;4.70;83.70
31455;DHT22;18084;53.028;8.834;2024-03-02T05:47:48;4.70;83.90
31455;DHT22;18084;53.028;8.834;2024-03-02T05:50:14;4.70;83.90
31455;DHT22;18084;53.028;8.834;2024-03-02T05:52:39;4.70;84.00
31455;DHT22;18084;53.028;8.834;2024-03-02T05:55:05;4.70;84.00
31455;DHT22;18084;53.028;8.834;2024-03-02T05:57:30;4.70;84.10
31455;DHT22;18084;53.028;8.834;2024-03-02T06:00:15;4.60;84.10
31455;DHT22;18084;53.028;8.834;2024-03-02T06:02:42;4.60;84.00
31455;DHT22;18084;53.028;8.834;2024-03-02T06:05:08;4.60;84.10
31455;DHT22;18084;53.028;8.834;2024-03-02T06:07:34;4.60;84.10
31455;DHT22;18084;53.028;8.834;2024-03-02T06:09:59;4.60;84.30
31455;DHT22;18084;53.028;8.834;2024-03-02T06:12:25;4.50;84.30
31455;DHT22;18084;53.028;8.834;2024-03-02T06:14:50;4.50;84.40
31455;DHT22;18084;53.028;8.834;2024-03-02T06:17:16;4.60;84.40
31455;DHT22;18084;53.028;8.834;2024-03-02T06:19:41;4.70;84.30
31455;DHT22;18084;53.028;8.834;2024-03-02T06:22:07;4.70;84.20
31455;DHT22;18084;53.028;8.834;2024-03-02T06:24:36;4.80;84.10
31455;DHT22;18084;53.028;8.834;2024-03-02T06:27:01;4.80;84.10
31455;DHT22;18084;53.028;8.834;2024-03-02T06:29:27;4.80;84.00
31455;DHT22;18084;53.028;8.834;2024-03-02T06:31:53;4.90;83.90
31455;DHT22;18084;53.028;8.834;2024-03-02T06:34:18;4.90;84.00
31455;DHT22;18084;53.028;8.834;2024-03-02T06:36:44;5.00;83.90
31455;DHT22;18084;53.028;8.834;2024-03-02T06:39:09;5.00;83.80
31455;DHT22;18084;53.028;8.834;2024-03-02T06:41:35;5.00;83.80
31455;DHT22;18084;53.028;8.834;2024-03-02T06:44:01;5.10;83.60
31455;DHT22;18084;53.028;8.834;2024-03-02T06:46:26;5.10;83.40
31455;DHT22;18084;53.028;8.834;2024-03-02T06:48:52;5.30;83.40
31455;DHT22;18084;53.028;8.834;2024-03-02T06:51:17;5.40;83.10
31455;DHT22;18084;53.028;8.834;2024-03-02T06:53:43;5.40;82.70
31455;DHT22;18084;53.028;8.834;2024-03-02T06:56:08;5.50;82.40
31455;DHT22;18084;53.028;8.834;2024-03-02T06:58:34;5.50;82.40
31455;DHT22;18084;53.028;8.834;2024-03-02T07:01:00;5.60;82.30
31455;DHT22;18084;53.028;8.834;2024-03-02T07:03:26;5.60;82.30
31455;DHT22;18084;53.028;8.834;2024-03-02T07:05:51;5.70;82.10
31455;DHT22;18084;53.028;8.834;2024-03-02T07:08:17;5.70;81.90
31455;DHT22;18084;53.028;8.834;2024-03-02T07:10:42;5.90;81.80
31455;DHT22;18084;53.028;8.834;2024-03-02T07:13:08;5.90;81.80
31455;DHT22;18084;53.028;8.834;2024-03-02T07:15:33;6.00;81.60
31455;DHT22;18084;53.028;8.834;2024-03-02T07:18:17;6.20;81.50
31455;DHT22;18084;53.028;8.834;2024-03-02T07:20:43;6.30;81.20
31455;DHT22;18084;53.028;8.834;2024-03-02T07:23:09;6.30;81.10
31455;DHT22;18084;53.028;8.834;2024-03-02T07:25:34;6.40;80.80
31455;DHT22;18084;53.028;8.834;2024-03-02T07:28:00;6.50;80.80
31455;DHT22;18084;53.028;8.834;2024-03-02T07:30:25;6.50;80.60
31455;DHT22;18084;53.028;8.834;2024-03-02T07:32:51;6.50;80.60
31455;DHT22;18084;53.028;8.834;2024-03-02T07:35:16;6.60;80.70
31455;DHT22;18084;53.028;8.834;2024-03-02T07:37:43;6.60;80.50
31455;DHT22;18084;53.028;8.834;2024-03-02T07:40:10;6.60;80.30
31455;DHT22;18084;53.028;8.834;2024-03-02T07:42:40;6.70;80.30
31455;DHT22;18084;53.028;8.834;2024-03-02T07:45:06;6.60;80.30
31455;DHT22;18084;53.028;8.834;2024-03-02T07:47:33;6.70;80.40
31455;DHT22;18084;53.028;8.834;2024-03-02T07:49:59;6.80;80.30
31455;DHT22;18084;53.028;8.834;2024-03-02T07:52:25;6.70;80.00
31455;DHT22;18084;53.028;8.834;2024-03-02T07:54:50;6.70;80.30
31455;DHT22;18084;53.028;8.834;2024-03-02T07:57:16;6.80;80.30
31455;DHT22;18084;53.028;8.834;2024-03-02T07:59:42;6.80;80.50
31455;DHT22;18084;53.028;8.834;2024-03-02T08:02:08;6.90;80.50
31455;DHT22;18084;53.028;8.834;2024-03-02T08:04:34;7.00;80.20
31455;DHT22;18084;53.028;8.834;2024-03-02T08:07:02;7.00;80.30
31455;DHT22;18084;53.028;8.834;2024-03-02T08:09:28;7.00;80.30
31455;DHT22;18084;53.028;8.834;2024-03-02T08:11:53;7.10;80.20
31455;DHT22;18084;53.028;8.834;2024-03-02T08:14:19;7.20;79.90
31455;DHT22;18084;53.028;8.834;2024-03-02T08:16:45;7.20;79.70
31455;DHT22;18084;53.028;8.834;2024-03-02T08:19:11;7.20;79.80
31455;DHT22;18084;53.028;8.834;2024-03-02T08:21:37;7.30;79.60
31455;DHT22;18084;53.028;8.834;2024-03-02T08:24:02;7.40;79.60
31455;DHT22;18084;53.028;8.834;2024-03-02T08:26:28;7.40;79.50
31455;DHT22;18084;53.028;8.834;2024-03-02T08:28:55;7.50;79.60
31455;DHT22;18084;53.028;8.834;2024-03-02T08:31:21;7.60;79.20
31455;DHT22;18084;53.028;8.834;2024-03-02T08:33:46;7.60;79.50
31455;DHT22;18084;53.028;8.834;2024-03-02T08:36:12;7.70;79.00
31455;DHT22;18084;53.028;8.834;2024-03-02T08:38:37;7.80;79.40
31455;DHT22;18084;53.028;8.834;2024-03-02T08:41:03;7.90;78.40
31455;DHT22;18084;53.028;8.834;2024-03-02T08:43:29;8.30;78.30
31455;DHT22;18084;53.028;8.834;2024-03-02T08:45:55;9.20;77.50
31455;DHT22;18084;53.028;8.834;2024-03-02T08:48:20;10.30;74.00
31455;DHT22;18084;53.028;8.834;2024-03-02T08:50:46;11.10;71.50
31455;DHT22;18084;53.028;8.834;2024-03-02T08:53:12;11.70;68.40
31455;DHT22;18084;53.028;8.834;2024-03-02T08:55:37;12.20;66.90
31455;DHT22;18084;53.028;8.834;2024-03-02T08:58:03;12.70;66.20
31455;DHT22;18084;53.028;8.834;2024-03-02T09:00:29;13.30;63.90
31455;DHT22;18084;53.028;8.834;2024-03-02T09:02:54;12.90;64.40
31455;DHT22;18084;53.028;8.834;2024-03-02T09:05:20;13.10;64.30
31455;DHT22;18084;53.028;8.834;2024-03-02T09:07:45;13.40;63.50
31455;DHT22;18084;53.028;8.834;2024-03-02T09:10:11;13.80;61.70
31455;DHT22;18084;53.028;8.834;2024-03-02T09:12:37;13.90;61.40
31455;DHT22;18084;53.028;8.834;2024-03-02T09:15:03;13.70;61.30
31455;DHT22;18084;53.028;8.834;2024-03-02T09:17:29;14.10;60.40
31455;DHT22;18084;53.028;8.834;2024-03-02T09:19:55;13.90;60.70
31455;DHT22;18084;53.028;8.834;2024-03-02T09:22:21;14.10;60.70
31455;DHT22;18084;53.028;8.834;2024-03-02T09:24:46;14.30;60.10
31455;DHT22;18084;53.028;8.834;2024-03-02T09:27:12;14.20;59.20
31455;DHT22;18084;53.028;8.834;2024-03-02T09:29:38;14.20;60.10
31455;DHT22;18084;53.028;8.834;2024-03-02T09:32:05;13.90;60.50
31455;DHT22;18084;53.028;8.834;2024-03-02T09:34:31;13.40;61.20
31455;DHT22;18084;53.028;8.834;2024-03-02T09:36:57;13.20;61.90
31455;DHT22;18084;53.028;8.834;2024-03-02T09:39:23;13.00;62.40
31455;DHT22;18084;53.028;8.834;2024-03-02T09:41:48;12.80;63.00
31455;DHT22;18084;53.028;8.834;2024-03-02T09:44:14;13.20;62.20
31455;DHT22;18084;53.028;8.834;2024-03-02T09:46:40;13.20;62.50
31455;DHT22;18084;53.028;8.834;2024-03-02T09:49:05;13.50;61.60
31455;DHT22;18084;53.028;8.834;2024-03-02T09:51:31;13.40;61.40
31455;DHT22;18084;53.028;8.834;2024-03-02T09:53:57;13.70;60.70
31455;DHT22;18084;53.028;8.834;2024-03-02T09:56:23;13.90;60.20
31455;DHT22;18084;53.028;8.834;2024-03-02T09:58:49;14.20;59.80
31455;DHT22;18084;53.028;8.834;2024-03-02T10:01:14;14.40;58.70
31455;DHT22;18084;53.028;8.834;2024-03-02T10:03:40;14.90;57.70
31455;DHT22;18084;53.028;8.834;2024-03-02T10:06:23;14.90;57.10
31455;DHT22;18084;53.028;8.834;2024-03-02T10:08:49;15.50;55.40
31455;DHT22;18084;53.028;8.834;2024-03-02T10:11:32;15.20;55.50
31455;DHT22;18084;53.028;8.834;2024-03-02T10:14:09;15.30;55.70
31455;DHT22;18084;53.028;8.834;2024-03-02T10:16:44;15.50;55.20
31455;DHT22;18084;53.028;8.834;2024-03-02T10:19:20;15.60;55.10
31455;DHT22;18084;53.028;8.834;2024-03-02T10:21:51;15.70;54.90
31455;DHT22;18084;53.028;8.834;2024-03-02T10:24:21;15.60;55.00
31455;DHT22;18084;53.028;8.834;2024-03-02T10:26:48;16.20;53.90
31455;DHT22;18084;53.028;8.834;2024-03-02T10:29:14;16.00;53.40
31455;DHT22;18084;53.028;8.834;2024-03-02T10:31:41;15.70;54.80
31455;DHT22;18084;53.028;8.834;2024-03-02T10:34:08;15.60;54.30
31455;DHT22;18084;53.028;8.834;2024-03-02T10:36:34;15.70;54.80
31455;DHT22;18084;53.028;8.834;2024-03-02T10:39:04;15.80;53.00
31455;DHT22;18084;53.028;8.834;2024-03-02T10:41:32;16.10;53.70
31455;DHT22;18084;53.028;8.834;2024-03-02T10:43:59;15.90;53.20
31455;DHT22;18084;53.028;8.834;2024-03-02T10:46:31;15.80;53.10
31455;DHT22;18084;53.028;8.834;2024-03-02T10:48:57;15.80;53.70
31455;DHT22;18084;53.028;8.834;2024-03-02T10:51:31;15.80;53.90
31455;DHT22;18084;53.028;8.834;2024-03-02T10:53:57;15.70;53.60
31455;DHT22;18084;53.028;8.834;2024-03-02T10:56:34;15.60;54.40
31455;DHT22;18084;53.028;8.834;2024-03-02T10:59:12;15.40;56.10
31455;DHT22;18084;53.028;8.834;2024-03-02T11:01:43;15.80;54.60
31455;DHT22;18084;53.028;8.834;2024-03-02T11:04:13;15.90;52.60
31455;DHT22;18084;53.028;8.834;2024-03-02T11:06:43;15.70;52.70
31455;DHT22;18084;53.028;8.834;2024-03-02T11:09:11;15.60;54.10
31455;DHT22;18084;53.028;8.834;2024-03-02T11:11:41;15.80;53.70
31455;DHT22;18084;53.028;8.834;2024-03-02T11:14:13;15.70;53.10
31455;DHT22;18084;53.028;8.834;2024-03-02T11:16:38;15.50;54.50
31455;DHT22;18084;53.028;8.834;2024-03-02T11:19:13;15.20;54.70
31455;DHT22;18084;53.028;8.834;2024-03-02T11:21:40;15.40;54.30
31455;DHT22;18084;53.028;8.834;2024-03-02T11:26:47;15.30;54.50
31455;DHT22;18084;53.028;8.834;2024-03-02T11:29:42;15.20;55.00
31455;DHT22;18084;53.028;8.834;2024-03-02T11:32:20;15.20;54.10
31455;DHT22;18084;53.028;8.834;2024-03-02T11:34:48;15.00;55.60
31455;DHT22;18084;53.028;8.834;2024-03-02T11:37:15;15.20;53.70
31455;DHT22;18084;53.028;8.834;2024-03-02T11:39:46;15.10;54.00
31455;DHT22;18084;53.028;8.834;2024-03-02T11:42:13;15.10;54.80
31455;DHT22;18084;53.028;8.834;2024-03-02T11:44:46;15.20;55.40
31455;DHT22;18084;53.028;8.834;2024-03-02T11:47:15;15.40;54.70
31455;DHT22;18084;53.028;8.834;2024-03-02T11:49:46;15.50;54.80
31455;DHT22;18084;53.028;8.834;2024-03-02T11:52:13;15.40;54.30
31455;DHT22;18084;53.028;8.834;2024-03-02T11:54:41;14.90;55.10
31455;DHT22;18084;53.028;8.834;2024-03-02T11:57:12;14.90;56.40
31455;DHT22;18084;53.028;8.834;2024-03-02T11:59:39;14.60;55.70
31455;DHT22;18084;53.028;8.834;2024-03-02T12:02:06;14.60;56.90
31455;DHT22;18084;53.028;8.834;2024-03-02T12:04:31;14.70;56.60
31455;DHT22;18084;53.028;8.834;2024-03-02T12:07:00;14.90;55.50
31455;DHT22;18084;53.028;8.834;2024-03-02T12:09:27;15.00;56.30
31455;DHT22;18084;53.028;8.834;2024-03-02T12:12:04;15.20;55.70
31455;DHT22;18084;53.028;8.834;2024-03-02T12:14:30;15.20;55.20
31455;DHT22;18084;53.028;8.834;2024-03-02T12:16:56;15.20;54.70
31455;DHT22;18084;53.028;8.834;2024-03-02T12:19:24;15.00;55.30
31455;DHT22;18084;53.028;8.834;2024-03-02T12:21:49;15.00;55.60
31455;DHT22;18084;53.028;8.834;2024-03-02T12:24:15;15.10;56.00
31455;DHT22;18084;53.028;8.834;2024-03-02T12:26:41;15.20;55.00
31455;DHT22;18084;53.028;8.834;2024-03-02T12:29:06;15.20;55.20
31455;DHT22;18084;53.028;8.834;2024-03-02T12:31:32;15.20;54.20
31455;DHT22;18084;53.028;8.834;2024-03-02T12:33:58;15.00;55.20
31455;DHT22;18084;53.028;8.834;2024-03-02T12:36:24;15.20;55.60
31455;DHT22;18084;53.028;8.834;2024-03-02T12:38:53;15.00;55.60
31455;DHT22;18084;53.028;8.834;2024-03-02T12:41:18;15.10;55.20
31455;DHT22;18084;53.028;8.834;2024-03-02T12:43:44;15.20;54.90
31455;DHT22;18084;53.028;8.834;2024-03-02T12:46:10;15.20;54.90
31455;DHT22;18084;53.028;8.834;2024-03-02T12:48:36;15.10;54.70
31455;DHT22;18084;53.028;8.834;2024-03-02T12:51:02;15.20;55.00
31455;DHT22;18084;53.028;8.834;2024-03-02T12:53:27;15.10;54.80
31455;DHT22;18084;53.028;8.834;2024-03-02T12:55:53;15.00;56.10
31455;DHT22;18084;53.028;8.834;2024-03-02T12:58:20;15.20;55.40
31455;DHT22;18084;53.028;8.834;2024-03-02T13:00:48;15.20;54.90
31455;DHT22;18084;53.028;8.834;2024-03-02T13:03:14;15.20;55.10
31455;DHT22;18084;53.028;8.834;2024-03-02T13:05:48;15.30;55.50
31455;DHT22;18084;53.028;8.834;2024-03-02T13:08:15;15.30;55.30
31455;DHT22;18084;53.028;8.834;2024-03-02T13:10:41;15.30;55.50
31455;DHT22;18084;53.028;8.834;2024-03-02T13:13:07;15.30;56.10
31455;DHT22;18084;53.028;8.834;2024-03-02T13:15:35;15.40;55.30
31455;DHT22;18084;53.028;8.834;2024-03-02T13:18:01;15.40;55.00
31455;DHT22;18084;53.028;8.834;2024-03-02T13:20:33;15.40;55.10
31455;DHT22;18084;53.028;8.834;2024-03-02T13:22:58;15.40;55.90
31455;DHT22;18084;53.028;8.834;2024-03-02T13:25:24;15.50;55.60
31455;DHT22;18084;53.028;8.834;2024-03-02T13:27:50;15.60;55.30
31455;DHT22;18084;53.028;8.834;2024-03-02T13:30:16;15.60;55.10
31455;DHT22;18084;53.028;8.834;2024-03-02T13:32:42;15.60;55.20
31455;DHT22;18084;53.028;8.834;2024-03-02T13:35:07;15.70;55.20
31455;DHT22;18084;53.028;8.834;2024-03-02T13:37:33;15.60;54.30
31455;DHT22;18084;53.028;8.834;2024-03-02T13:39:59;15.70;54.50
31455;DHT22;18084;53.028;8.834;2024-03-02T13:44:55;15.60;54.60
31455;DHT22;18084;53.028;8.834;2024-03-02T13:47:21;15.60;54.50
31455;DHT22;18084;53.028;8.834;2024-03-02T13:49:47;15.60;54.90
31455;DHT22;18084;53.028;8.834;2024-03-02T13:52:14;15.40;55.10
31455;DHT22;18084;53.028;8.834;2024-03-02T13:54:43;15.40;55.30
31455;DHT22;18084;53.028;8.834;2024-03-02T13:57:10;15.30;54.90
31455;DHT22;18084;53.028;8.834;2024-03-02T14:02:45;15.50;55.20
31455;DHT22;18084;53.028;8.834;2024-03-02T14:05:11;15.40;55.60
31455;DHT22;18084;53.028;8.834;2024-03-02T14:07:38;15.40;55.60
31455;DHT22;18084;53.028;8.834;2024-03-02T14:10:04;15.40;55.20
31455;DHT22;18084;53.028;8.834;2024-03-02T14:12:29;15.30;55.00
31455;DHT22;18084;53.028;8.834;2024-03-02T14:14:56;15.30;55.40
31455;DHT22;18084;53.028;8.834;2024-03-02T14:17:26;15.40;55.00
31455;DHT22;18084;53.028;8.834;2024-03-02T14:19:52;15.50;54.50
31455;DHT22;18084;53.028;8.834;2024-03-02T14:22:19;15.50;54.30
31455;DHT22;18084;53.028;8.834;2024-03-02T14:24:45;15.40;55.10
31455;DHT22;18084;53.028;8.834;2024-03-02T14:27:10;15.40;54.90
31455;DHT22;18084;53.028;8.834;2024-03-02T14:29:35;15.30;54.90
31455;DHT22;18084;53.028;8.834;2024-03-02T14:32:03;15.30;55.00
31455;DHT22;18084;53.028;8.834;2024-03-02T14:34:29;15.30;55.30
31455;DHT22;18084;53.028;8.834;2024-03-02T14:36:55;15.40;54.90
31455;DHT22;18084;53.028;8.834;2024-03-02T14:39:20;15.40;55.00
31455;DHT22;18084;53.028;8.834;2024-03-02T14:41:46;15.40;54.60
31455;DHT22;18084;53.028;8.834;2024-03-02T14:44:12;15.40;54.30
31455;DHT22;18084;53.028;8.834;2024-03-02T14:46:37;15.40;55.50
31455;DHT22;18084;53.028;8.834;2024-03-02T14:49:03;15.40;54.60
31455;DHT22;18084;53.028;8.834;2024-03-02T14:51:29;15.40;55.40
31455;DHT22;18084;53.028;8.834;2024-03-02T14:53:55;15.40;55.00
31455;DHT22;18084;53.028;8.834;2024-03-02T14:56:21;15.30;54.20
31455;DHT22;18084;53.028;8.834;2024-03-02T14:58:46;15.30;55.20
31455;DHT22;18084;53.028;8.834;2024-03-02T15:01:12;15.30;55.00
31455;DHT22;18084;53.028;8.834;2024-03-02T15:03:38;15.30;54.70
31455;DHT22;18084;53.028;8.834;2024-03-02T15:06:04;15.30;55.00
31455;DHT22;18084;53.028;8.834;2024-03-02T15:08:30;15.20;55.40
31455;DHT22;18084;53.028;8.834;2024-03-02T15:10:55;15.30;55.90
31455;DHT22;18084;53.028;8.834;2024-03-02T15:13:22;15.20;55.70
31455;DHT22;18084;53.028;8.834;2024-03-02T15:15:48;15.20;55.20
31455;DHT22;18084;53.028;8.834;2024-03-02T15:18:14;15.20;55.60
31455;DHT22;18084;53.028;8.834;2024-03-02T15:20:40;15.10;55.80
31455;DHT22;18084;53.028;8.834;2024-03-02T15:23:06;15.20;55.40
31455;DHT22;18084;53.028;8.834;2024-03-02T15:25:31;15.10;56.20
31455;DHT22;18084;53.028;8.834;2024-03-02T15:27:57;15.10;55.70
31455;DHT22;18084;53.028;8.834;2024-03-02T15:30:22;15.10;56.20
31455;DHT22;18084;53.028;8.834;2024-03-02T15:32:48;15.10;55.20
31455;DHT22;18084;53.028;8.834;2024-03-02T15:35:13;15.00;55.40
31455;DHT22;18084;53.028;8.834;2024-03-02T15:37:39;15.00;55.70
31455;DHT22;18084;53.028;8.834;2024-03-02T15:40:05;14.80;55.50
31455;DHT22;18084;53.028;8.834;2024-03-02T15:42:33;14.80;55.80
31455;DHT22;18084;53.028;8.834;2024-03-02T15:44:58;14.80;56.40
31455;DHT22;18084;53.028;8.834;2024-03-02T15:47:24;14.80;57.00
31455;DHT22;18084;53.028;8.834;2024-03-02T15:49:49;14.80;56.40